Time;durP1;ratioP1;P1;durP2;ratioP2;P2;SDS_P1;SDS_P2;PMS_P1;PMS_P2;Temp;Humidity;BMP_temperature;BMP_pressure;BME280_temperature;BME280_humidity;BME280_pressure;Samples;Min_cycle;Max_cycle;Signal;HPM_P1;HPM_P2
2022/04/04 00:00:20;;;;;;;;;15.50;15.50;;;;;6.49;53.35;101683.06;4973424;28;45491;-54
2022/04/04 00:02:46;;;;;;;;;14.75;14.00;;;;;6.51;53.58;101690.97;4975015;28;46088;-53
2022/04/04 00:05:11;;;;;;;;;14.75;12.75;;;;;6.46;52.94;101685.78;4975919;28;45547;-52
2022/04/04 00:07:38;;;;;;;;;19.75;16.50;;;;;6.42;54.21;101684.13;4977912;28;45448;-51
2022/04/04 00:10:04;;;;;;;;;21.50;13.00;;;;;6.42;53.79;101683.25;4984349;27;45669;-53
2022/04/04 00:12:30;;;;;;;;;15.75;15.75;;;;;6.38;53.56;101687.72;4972407;28;46913;-53
2022/04/04 00:14:55;;;;;;;;;21.25;13.50;;;;;6.34;55.12;101693.97;4974306;28;45463;-55
2022/04/04 00:17:21;;;;;;;;;15.75;12.75;;;;;6.26;55.30;101698.56;4973397;28;45509;-55
2022/04/04 00:19:46;;;;;;;;;17.50;16.25;;;;;6.30;53.91;101702.00;4978247;28;45491;-52
2022/04/04 00:22:12;;;;;;;;;15.00;12.50;;;;;6.33;54.46;101694.00;4973219;28;46263;-56
2022/04/04 00:24:37;;;;;;;;;16.50;16.50;;;;;6.34;53.47;101701.88;4973949;28;45439;-59
2022/04/04 00:27:03;;;;;;;;;16.75;15.00;;;;;6.37;54.06;101693.03;4955767;28;45371;-52
2022/04/04 00:29:28;;;;;;;;;16.00;13.75;;;;;6.35;53.19;101687.78;4963251;28;45739;-54
2022/04/04 00:31:54;;;;;;;;;13.50;13.50;;;;;6.34;53.58;101683.41;4980878;28;45983;-59
2022/04/04 00:34:19;;;;;;;;;16.75;15.00;;;;;6.36;54.14;101686.88;4984554;28;45240;-57
2022/04/04 00:36:45;;;;;;;;;15.00;15.00;;;;;6.35;53.30;101690.41;4996029;28;45468;-56
2022/04/04 00:39:15;;;;;;;;;21.50;16.75;;;;;6.32;53.64;101679.91;4983357;27;45682;-50
2022/04/04 00:41:41;;;;;;;;;21.00;15.50;;;;;6.33;53.02;101683.44;4975481;28;47653;-50
2022/04/04 00:44:06;;;;;;;;;16.00;16.00;;;;;6.29;53.25;101674.72;4994576;28;46915;-59
2022/04/04 00:46:32;;;;;;;;;15.50;15.50;;;;;6.30;53.05;101686.16;4978499;28;45738;-55
2022/04/04 00:48:57;;;;;;;;;16.50;12.75;;;;;6.27;54.58;101675.66;4976756;28;45552;-58
2022/04/04 00:51:23;;;;;;;;;20.50;16.50;;;;;6.24;54.20;101679.19;4973301;28;45450;-56
2022/04/04 00:53:49;;;;;;;;;19.50;16.00;;;;;6.21;53.79;101685.41;4976031;27;45410;-54
2022/04/04 00:56:14;;;;;;;;;27.75;15.75;;;;;6.16;52.98;101673.22;4972833;28;45442;-56
2022/04/04 00:58:40;;;;;;;;;16.00;16.00;;;;;6.11;53.10;101683.00;4987772;28;45475;-57
2022/04/04 01:01:06;;;;;;;;;15.00;15.00;;;;;6.08;53.58;101676.00;4976521;28;46141;-52
2022/04/04 01:03:32;;;;;;;;;15.00;12.00;;;;;6.06;53.85;101675.19;5005150;28;45468;-58
2022/04/04 01:05:59;;;;;;;;;17.00;13.25;;;;;6.03;54.06;101669.09;5029488;28;45770;-58
2022/04/04 01:08:25;;;;;;;;;11.00;11.00;;;;;6.01;53.90;101673.53;4983011;28;46221;-55
2022/04/04 01:10:51;;;;;;;;;17.25;16.25;;;;;5.94;55.37;101672.78;4986348;27;46196;-52
2022/04/04 01:13:16;;;;;;;;;13.50;12.50;;;;;5.78;55.14;101669.53;4982608;27;45543;-56
2022/04/04 01:15:42;;;;;;;;;12.00;11.75;;;;;5.81;54.58;101668.59;4989854;27;45325;-49
2022/04/04 01:18:08;;;;;;;;;12.00;11.25;;;;;5.78;54.13;101661.63;4976350;28;45539;-50
2022/04/04 01:20:35;;;;;;;;;16.50;12.25;;;;;5.80;54.27;101657.19;4974125;28;47357;-51
2022/04/04 01:23:01;;;;;;;;;14.75;12.75;;;;;5.81;53.72;101661.56;4976947;28;45428;-54
2022/04/04 01:25:30;;;;;;;;;22.25;15.75;;;;;5.72;54.63;101653.81;4974204;28;45419;-58
2022/04/04 01:27:56;;;;;;;;;14.75;11.75;;;;;5.75;54.08;101664.31;4975347;28;45539;-54
2022/04/04 01:30:23;;;;;;;;;11.75;10.50;;;;;5.72;54.38;101666.13;4974014;28;45543;-59
2022/04/04 01:32:49;;;;;;;;;16.50;12.50;;;;;5.65;54.28;101657.47;4975601;28;45449;-52
2022/04/04 01:35:19;;;;;;;;;12.00;10.50;;;;;5.69;54.12;101664.41;4973555;28;45415;-58
2022/04/04 01:37:45;;;;;;;;;14.75;11.00;;;;;5.72;53.88;101663.50;4957735;28;45307;-53
2022/04/04 01:40:11;;;;;;;;;11.50;9.25;;;;;5.74;53.49;101652.03;4973649;28;47359;-56
2022/04/04 01:42:38;;;;;;;;;14.00;12.00;;;;;5.75;53.29;101653.75;4974542;27;45403;-57
2022/04/04 01:45:08;;;;;;;;;8.75;8.75;;;;;5.74;53.26;101646.75;5024280;27;45465;-55
2022/04/04 01:47:34;;;;;;;;;9.00;9.00;;;;;5.74;52.47;101652.03;5066977;27;45485;-52
2022/04/04 01:49:59;;;;;;;;;8.75;8.75;;;;;5.74;52.92;101649.38;4974533;28;46224;-54
2022/04/04 01:52:25;;;;;;;;;11.75;11.75;;;;;5.70;53.18;101645.03;4976880;27;45697;-52
2022/04/04 01:54:51;;;;;;;;;9.00;9.00;;;;;5.69;53.37;101634.53;4974143;28;46714;-51
2022/04/04 01:57:16;;;;;;;;;13.25;9.25;;;;;5.68;53.56;101631.00;4975168;28;45392;-55
2022/04/04 01:59:42;;;;;;;;;14.00;11.75;;;;;5.67;54.24;101629.28;4984001;28;46515;-51
2022/04/04 02:02:07;;;;;;;;;11.50;11.50;;;;;5.68;53.88;101633.66;4978001;28;45553;-53
2022/04/04 02:04:33;;;;;;;;;10.00;10.00;;;;;5.70;53.40;101636.25;4983239;28;45518;-58
2022/04/04 02:06:59;;;;;;;;;14.75;12.00;;;;;5.69;52.97;101632.75;4991452;28;45425;-52
2022/04/04 02:09:25;;;;;;;;;11.00;9.00;;;;;5.63;53.04;101627.59;4983599;28;47223;-55
2022/04/04 02:11:50;;;;;;;;;11.50;11.50;;;;;5.65;53.16;101625.81;4963667;28;45419;-54
2022/04/04 02:14:16;;;;;;;;;14.50;12.50;;;;;5.60;54.30;101622.41;4973701;28;45528;-51
2022/04/04 02:16:42;;;;;;;;;13.00;10.00;;;;;5.58;54.55;101618.88;4989811;28;45577;-58
2022/04/04 02:19:09;;;;;;;;;12.00;12.00;;;;;5.58;54.04;101618.88;4977356;28;45508;-58
2022/04/04 02:21:36;;;;;;;;;14.50;12.75;;;;;5.53;55.29;101611.06;4984369;27;45274;-57
2022/04/04 02:24:02;;;;;;;;;10.25;10.00;;;;;5.49;54.33;101608.53;4981267;28;45691;-57
2022/04/04 02:26:27;;;;;;;;;10.50;10.00;;;;;5.52;54.32;101613.75;4974962;28;45426;-54
2022/04/04 02:28:53;;;;;;;;;9.50;9.50;;;;;5.54;53.92;101614.56;4980275;28;45496;-52
2022/04/04 02:31:18;;;;;;;;;14.75;10.00;;;;;5.53;53.42;101604.91;4978925;27;45501;-59
2022/04/04 02:33:44;;;;;;;;;13.00;12.50;;;;;5.32;54.02;101578.03;4975295;28;45438;-53
2022/04/04 02:36:10;;;;;;;;;11.25;10.50;;;;;5.49;53.32;101608.53;4974577;28;45406;-52
2022/04/04 02:38:35;;;;;;;;;9.25;9.25;;;;;5.47;53.75;101613.84;4973629;28;45480;-57
2022/04/04 02:41:01;;;;;;;;;12.00;10.75;;;;;5.42;53.61;101596.34;4974272;28;45370;-51
2022/04/04 02:43:26;;;;;;;;;14.00;9.25;;;;;5.44;53.04;101610.38;4983491;28;45500;-52
2022/04/04 02:45:52;;;;;;;;;11.50;10.75;;;;;5.42;53.79;101606.88;5049346;28;45315;-53
2022/04/04 02:48:17;;;;;;;;;11.00;8.50;;;;;5.42;52.98;101607.75;5002657;28;45390;-53
2022/04/04 02:50:44;;;;;;;;;11.25;11.00;;;;;5.42;52.98;101601.63;5074079;27;45259;-55
2022/04/04 02:53:11;;;;;;;;;11.00;9.00;;;;;5.41;53.89;101599.88;4954957;28;45236;-58
2022/04/04 02:58:21;;;;;;;;;11.50;8.00;;;;;5.41;52.88;101602.50;4973984;28;45303;-58
2022/04/04 03:00:46;;;;;;;;;7.00;5.00;;;;;5.43;52.84;101600.72;4989092;28;45248;-59
2022/04/04 03:03:12;;;;;;;;;11.50;9.00;;;;;5.15;53.56;101556.38;4986895;28;45271;-58
2022/04/04 03:05:38;;;;;;;;;8.25;4.75;;;;;5.26;52.72;101569.38;4980160;28;45370;-54
2022/04/04 03:08:04;;;;;;;;;8.50;7.75;;;;;5.40;52.48;101595.50;4986928;28;45984;-55
2022/04/04 03:10:31;;;;;;;;;7.25;7.25;;;;;5.42;52.77;101598.97;4989592;27;45432;-54
2022/04/04 03:12:59;;;;;;;;;5.00;5.00;;;;;5.37;52.81;101582.38;4974462;27;45328;-53
2022/04/04 03:15:25;;;;;;;;;11.50;6.50;;;;;5.34;53.08;101583.31;4974990;28;45286;-55
2022/04/04 03:17:55;;;;;;;;;8.00;8.00;;;;;5.46;52.96;101587.47;4973718;28;45457;-53
2022/04/04 03:20:23;;;;;;;;;10.25;9.25;;;;;5.39;53.42;101588.50;4973124;28;45438;-54
2022/04/04 03:22:51;;;;;;;;;9.25;8.00;;;;;5.39;52.39;101585.84;4974838;28;45286;-55
2022/04/04 03:25:17;;;;;;;;;11.25;10.75;;;;;5.40;53.24;101582.31;4975003;28;45441;-55
2022/04/04 03:27:44;;;;;;;;;8.75;8.00;;;;;5.40;52.62;101582.31;4972451;28;46534;-55
2022/04/04 03:30:24;;;;;;;;;6.25;6.25;;;;;5.38;53.38;101573.56;4973167;28;45412;-55
2022/04/04 03:32:51;;;;;;;;;9.25;9.25;;;;;5.40;53.05;101577.91;4974430;28;45416;-52
2022/04/04 03:35:18;;;;;;;;;6.50;6.50;;;;;5.41;53.50;101573.50;4974333;28;45496;-53
2022/04/04 03:37:46;;;;;;;;;7.00;5.75;;;;;5.39;53.39;101559.47;4972524;28;46357;-53
2022/04/04 03:40:13;;;;;;;;;8.25;7.00;;;;;5.41;53.12;101560.31;4972300;28;45499;-56
2022/04/04 03:42:40;;;;;;;;;5.25;5.25;;;;;5.40;53.05;101562.06;4973928;28;45468;-54
2022/04/04 03:45:07;;;;;;;;;9.25;9.25;;;;;5.41;53.33;101557.66;4974757;27;45534;-55
2022/04/04 03:47:32;;;;;;;;;8.75;8.00;;;;;5.41;53.73;101565.59;4974500;28;47082;-53
2022/04/04 03:49:59;;;;;;;;;8.00;8.00;;;;;5.40;53.13;101550.66;4973874;28;45445;-59
2022/04/04 03:52:25;;;;;;;;;9.25;7.50;;;;;5.42;53.38;101554.13;4974602;28;45272;-55
2022/04/04 03:54:51;;;;;;;;;12.25;9.75;;;;;5.38;53.51;101550.69;4988045;27;45520;-53
2022/04/04 03:57:17;;;;;;;;;7.50;7.00;;;;;5.33;53.00;101540.19;4975180;28;45487;-54
2022/04/04 03:59:43;;;;;;;;;12.25;9.25;;;;;5.39;53.59;101538.38;4973060;28;45497;-53
2022/04/04 04:02:09;;;;;;;;;9.00;6.50;;;;;5.38;53.16;101541.91;4973887;28;45320;-57
2022/04/04 04:04:34;;;;;;;;;8.00;8.00;;;;;5.31;53.72;101536.72;4975848;28;45326;-51
2022/04/04 04:06:59;;;;;;;;;5.00;5.00;;;;;5.37;53.40;101540.16;4975967;27;45228;-54
2022/04/04 04:09:25;;;;;;;;;8.00;8.00;;;;;5.36;52.40;101541.06;4977032;28;45221;-53
2022/04/04 04:11:50;;;;;;;;;7.75;7.75;;;;;5.29;52.88;101532.41;4977382;27;45517;-55
2022/04/04 04:14:16;;;;;;;;;9.00;5.00;;;;;5.32;53.35;101538.47;4959339;28;45233;-55
2022/04/04 04:16:41;;;;;;;;;9.75;5.00;;;;;5.37;52.73;101537.53;4976082;28;45946;-53
2022/04/04 04:20:19;;;;;;;;;14.25;12.50;;;;;5.36;52.30;101525.25;4976378;28;45239;-56
2022/04/04 04:21:52;;;;;;;;;7.00;7.00;;;;;5.36;53.55;101527.88;4976639;28;45504;-50
2022/04/04 04:24:18;;;;;;;;;10.75;7.25;;;;;5.37;53.23;101525.22;4976789;28;45507;-54
2022/04/04 04:26:43;;;;;;;;;7.00;4.50;;;;;5.39;52.45;101517.25;4976264;28;45515;-52
2022/04/04 04:29:08;;;;;;;;;7.00;7.00;;;;;5.39;52.36;101519.91;4976113;28;45364;-53
2022/04/04 04:31:34;;;;;;;;;7.75;7.00;;;;;5.41;52.80;101510.19;4976164;28;45440;-53
2022/04/04 04:34:00;;;;;;;;;11.00;7.00;;;;;5.37;52.34;101514.66;4976057;28;45547;-54
2022/04/04 04:36:26;;;;;;;;;9.50;9.50;;;;;5.37;52.36;101514.66;4975952;28;45386;-52
2022/04/04 04:38:52;;;;;;;;;7.50;7.00;;;;;5.39;53.23;101512.84;4976107;27;45333;-52
2022/04/04 04:41:17;;;;;;;;;9.25;8.00;;;;;5.40;52.34;101513.72;4976052;28;45492;-60
2022/04/04 04:43:42;;;;;;;;;6.50;6.50;;;;;5.36;52.97;101497.09;4976462;28;45355;-55
2022/04/04 04:46:08;;;;;;;;;8.25;7.00;;;;;5.36;52.62;101497.09;4976143;27;45267;-54
2022/04/04 04:48:34;;;;;;;;;8.75;7.75;;;;;5.40;52.75;101500.53;5028957;27;45769;-53
2022/04/04 04:50:59;;;;;;;;;8.00;8.00;;;;;5.43;52.50;101503.09;4987460;27;45446;-53
2022/04/04 04:53:24;;;;;;;;;8.50;8.00;;;;;5.38;52.14;101494.44;4978710;27;45671;-52
2022/04/04 04:55:51;;;;;;;;;8.50;8.50;;;;;5.41;52.37;101502.28;5010447;28;46268;-51
2022/04/04 04:58:16;;;;;;;;;11.00;8.00;;;;;5.38;53.23;101492.66;4984286;27;45355;-56
2022/04/04 05:00:42;;;;;;;;;9.25;9.25;;;;;5.35;53.26;101491.84;4975808;28;45534;-59
2022/04/04 05:03:26;;;;;;;;;8.75;7.50;;;;;5.28;52.90;101489.31;4976259;27;45608;-56
2022/04/04 05:05:51;;;;;;;;;9.50;9.50;;;;;5.30;52.38;101492.78;5073718;27;46139;-53
2022/04/04 05:08:17;;;;;;;;;10.00;10.00;;;;;5.37;53.44;101497.97;5029852;27;45405;-55
2022/04/04 05:10:42;;;;;;;;;11.50;9.25;;;;;5.32;52.72;101501.53;4974770;28;45262;-56
2022/04/04 05:13:08;;;;;;;;;8.75;8.75;;;;;5.28;53.18;101491.97;4974312;28;45609;-59
2022/04/04 05:15:33;;;;;;;;;15.50;9.50;;;;;5.32;52.75;101493.63;4975489;28;46031;-55
2022/04/04 05:17:59;;;;;;;;;18.00;12.00;;;;;5.35;52.80;101492.72;4975066;28;45310;-59
2022/04/04 05:20:24;;;;;;;;;10.00;10.00;;;;;5.37;52.83;101503.25;4975851;28;45522;-54
2022/04/04 05:22:50;;;;;;;;;13.50;11.00;;;;;5.36;52.40;101499.75;5014342;28;45433;-52
2022/04/04 05:25:16;;;;;;;;;11.25;11.00;;;;;5.35;52.98;101490.09;4986409;28;45943;-58
2022/04/04 05:27:41;;;;;;;;;14.25;11.00;;;;;5.37;52.46;101503.25;4975919;28;45383;-56
2022/04/04 05:30:08;;;;;;;;;12.00;11.00;;;;;5.35;52.67;101499.78;4996495;28;45425;-55
2022/04/04 05:32:34;;;;;;;;;16.00;15.00;;;;;5.37;53.14;101497.97;4974343;28;45198;-53
2022/04/04 05:35:00;;;;;;;;;13.50;13.50;;;;;5.35;52.28;101498.00;4975535;28;46066;-53
2022/04/04 05:37:26;;;;;;;;;9.75;9.75;;;;;5.35;52.82;101491.84;5028711;27;45488;-51
2022/04/04 05:39:51;;;;;;;;;11.75;11.75;;;;;5.37;53.38;101504.09;5079526;27;45349;-58
2022/04/04 05:42:17;;;;;;;;;12.75;8.50;;;;;5.36;53.31;101496.22;5020757;28;45598;-55
2022/04/04 05:44:42;;;;;;;;;11.75;11.00;;;;;5.35;52.29;101494.50;4961363;28;45314;-53
2022/04/04 05:47:11;;;;;;;;;12.50;9.25;;;;;5.38;52.79;101499.69;4974144;28;45341;-57
2022/04/04 05:49:37;;;;;;;;;13.00;12.00;;;;;5.30;53.22;101484.88;4974541;28;45416;-53
2022/04/04 05:52:03;;;;;;;;;19.00;17.00;;;;;5.38;53.00;101494.44;4963686;28;45479;-55
2022/04/04 05:54:30;;;;;;;;;11.75;8.00;;;;;5.38;52.55;101491.78;4956337;28;45255;-54
2022/04/04 05:56:56;;;;;;;;;18.25;15.75;;;;;5.13;52.59;101454.50;5010436;28;45257;-55
2022/04/04 05:59:21;;;;;;;;;12.25;10.50;;;;;5.26;53.24;101477.94;4956750;28;45387;-57
2022/04/04 06:01:47;;;;;;;;;15.75;13.50;;;;;5.13;52.29;101451.84;4992480;28;46642;-56
2022/04/04 06:04:12;;;;;;;;;14.50;11.50;;;;;5.33;52.33;101490.09;4999071;27;45536;-53
2022/04/04 06:06:38;;;;;;;;;13.50;13.50;;;;;5.32;53.00;101490.13;4974477;28;45553;-52
2022/04/04 06:09:03;;;;;;;;;13.00;13.00;;;;;5.24;52.45;101482.38;4975174;27;45688;-56
2022/04/04 06:11:29;;;;;;;;;8.00;8.00;;;;;5.26;52.41;101480.59;4973255;28;45540;-60
2022/04/04 06:13:56;;;;;;;;;12.00;9.50;;;;;5.21;52.54;101469.25;4975461;28;45974;-59
2022/04/04 06:16:22;;;;;;;;;14.75;12.00;;;;;5.27;53.27;101474.41;4974602;28;45279;-55
2022/04/04 06:18:50;;;;;;;;;13.00;10.75;;;;;5.23;53.06;101462.19;4974338;28;45490;-56
2022/04/04 06:21:16;;;;;;;;;19.25;12.00;;;;;5.42;53.06;101482.91;4972428;28;45417;-58
2022/04/04 06:23:42;;;;;;;;;10.75;7.50;;;;;5.42;52.42;101480.25;4959455;28;45429;-54
2022/04/04 06:26:07;;;;;;;;;12.75;12.00;;;;;5.43;51.81;101482.00;4957331;28;45463;-56
2022/04/04 06:28:34;;;;;;;;;14.00;14.00;;;;;5.44;52.16;101479.31;4973805;28;45386;-56
2022/04/04 06:31:01;;;;;;;;;13.50;13.50;;;;;5.46;52.01;101474.88;4975642;28;45386;-55
2022/04/04 06:33:30;;;;;;;;;10.25;8.75;;;;;5.49;52.49;101474.84;4963709;28;45659;-57
2022/04/04 06:35:55;;;;;;;;;11.00;8.50;;;;;5.45;51.48;101470.50;4955605;28;45343;-60
2022/04/04 06:38:22;;;;;;;;;11.50;10.50;;;;;5.53;51.25;101476.50;4955697;28;45177;-61
2022/04/04 06:40:51;;;;;;;;;7.25;7.00;;;;;5.49;50.83;101466.94;4955465;28;45413;-57
2022/04/04 06:43:18;;;;;;;;;12.25;11.00;;;;;5.53;51.25;101473.88;4955514;28;45443;-58
2022/04/04 06:45:44;;;;;;;;;20.00;11.50;;;;;5.54;50.45;101474.72;4955382;28;45433;-58
2022/04/04 06:48:10;;;;;;;;;8.00;7.00;;;;;5.53;50.66;101473.00;4953885;28;45502;-55
2022/04/04 06:50:36;;;;;;;;;11.00;7.75;;;;;5.54;50.61;101470.31;4954388;28;45378;-59
2022/04/04 06:53:02;;;;;;;;;11.00;11.00;;;;;5.50;50.78;101451.97;4937738;28;47365;-55
2022/04/04 06:55:28;;;;;;;;;14.25;12.00;;;;;5.55;50.53;101460.63;4989026;28;45388;-59
2022/04/04 06:57:56;;;;;;;;;14.50;11.25;;;;;5.66;50.74;101474.47;5077154;27;45412;-63
2022/04/04 07:00:23;;;;;;;;;12.00;9.00;;;;;5.55;50.73;101455.38;5059805;28;45642;-57
2022/04/04 07:02:49;;;;;;;;;8.00;7.25;;;;;5.67;50.40;101465.66;5077358;27;45903;-52
2022/04/04 07:05:15;;;;;;;;;8.75;8.00;;;;;5.67;49.25;101448.94;5077079;27;45362;-59
2022/04/04 07:07:41;;;;;;;;;8.75;8.75;;;;;5.76;49.27;101459.31;5077104;27;45258;-52
2022/04/04 07:10:07;;;;;;;;;9.00;9.00;;;;;5.70;48.47;101438.31;5077113;27;45317;-53
2022/04/04 07:12:41;;;;;;;;;11.00;11.00;;;;;5.82;48.03;101452.09;5076891;27;45469;-54
2022/04/04 07:15:11;;;;;;;;;14.25;10.00;;;;;5.85;48.12;101449.38;5076833;27;45258;-55
2022/04/04 07:17:38;;;;;;;;;15.25;8.00;;;;;5.95;48.01;101457.13;5077099;27;45384;-53
2022/04/04 07:20:07;;;;;;;;;7.50;7.50;;;;;5.98;49.01;101450.00;5077208;27;45354;-54
2022/04/04 07:22:40;;;;;;;;;8.00;8.00;;;;;5.97;48.28;101443.00;5076863;27;45452;-56
2022/04/04 07:25:07;;;;;;;;;9.50;9.50;;;;;6.03;47.88;101436.72;5076975;27;45334;-62
2022/04/04 07:27:34;;;;;;;;;9.75;9.75;;;;;6.05;47.71;101430.50;5076929;28;45219;-60
2022/04/04 07:30:00;;;;;;;;;8.00;8.00;;;;;6.08;47.88;101434.81;5076103;28;45298;-57
2022/04/04 07:32:25;;;;;;;;;11.75;9.00;;;;;6.08;47.51;101421.63;5076476;27;45376;-57
2022/04/04 07:34:51;;;;;;;;;8.00;8.00;;;;;6.13;47.36;101422.41;5076631;28;45466;-62
2022/04/04 07:37:17;;;;;;;;;11.25;8.00;;;;;6.14;47.46;101416.22;5077138;27;45898;-54
2022/04/04 07:39:42;;;;;;;;;12.75;8.75;;;;;6.24;47.03;101420.31;5076694;27;45373;-64
2022/04/04 07:42:08;;;;;;;;;8.25;8.25;;;;;6.29;46.90;101413.19;5075574;28;47447;-55
2022/04/04 07:44:34;;;;;;;;;6.00;6.00;;;;;6.33;47.02;101420.09;5075166;28;45375;-61
2022/04/04 07:47:00;;;;;;;;;11.00;8.75;;;;;6.36;46.12;101419.16;5077111;27;45468;-61
2022/04/04 07:49:26;;;;;;;;;8.25;8.00;;;;;6.32;46.87;101399.00;5076957;27;45664;-60
2022/04/04 07:51:52;;;;;;;;;9.50;9.50;;;;;6.40;45.56;101403.22;5076244;27;45334;-54
2022/04/04 07:54:17;;;;;;;;;8.50;8.00;;;;;6.49;45.85;101405.59;5076258;28;45385;-51
2022/04/04 07:56:43;;;;;;;;;9.50;6.75;;;;;6.48;46.13;101395.94;4993419;27;45311;-59
2022/04/04 07:59:09;;;;;;;;;9.00;8.00;;;;;6.56;45.86;101395.75;4974038;28;45441;-52
2022/04/04 08:01:35;;;;;;;;;9.00;6.75;;;;;6.63;46.74;101405.22;4973396;28;45418;-53
2022/04/04 08:04:01;;;;;;;;;6.50;6.25;;;;;6.63;46.23;101391.13;4972507;28;45472;-49
2022/04/04 08:06:26;;;;;;;;;4.75;4.50;;;;;6.68;46.39;101390.13;4988860;28;45317;-58
2022/04/04 08:08:52;;;;;;;;;9.00;7.50;;;;;6.70;46.61;101387.44;4973872;28;45452;-54
2022/04/04 08:11:17;;;;;;;;;8.75;8.75;;;;;6.64;45.98;101359.41;4986160;28;46860;-50
2022/04/04 08:13:45;;;;;;;;;6.75;6.50;;;;;6.80;45.41;101375.69;4972767;28;45336;-56
2022/04/04 08:16:10;;;;;;;;;8.25;8.00;;;;;6.84;45.50;101379.97;4973523;27;45310;-62
2022/04/04 08:18:36;;;;;;;;;9.25;7.00;;;;;6.89;45.11;101383.34;4973521;27;45478;-51
2022/04/04 08:21:02;;;;;;;;;5.25;5.25;;;;;6.92;45.43;101378.00;4972456;28;45358;-54
2022/04/04 08:23:29;;;;;;;;;7.50;5.50;;;;;6.96;45.10;101368.19;4973525;28;45634;-54
2022/04/04 08:25:59;;;;;;;;;9.00;6.00;;;;;7.04;44.40;101382.09;4973640;28;45366;-60
2022/04/04 08:28:28;;;;;;;;;9.00;9.00;;;;;7.05;44.67;101384.69;4972252;28;45529;-60
2022/04/04 08:30:54;;;;;;;;;5.00;5.00;;;;;7.06;44.44;101357.31;4973249;28;47187;-59
2022/04/04 08:33:19;;;;;;;;;4.75;4.75;;;;;7.06;44.92;101354.66;4973143;28;45436;-58
2022/04/04 08:35:45;;;;;;;;;7.50;4.00;;;;;7.13;44.04;101357.13;4971935;28;45470;-59
2022/04/04 08:38:14;;;;;;;;;4.75;4.75;;;;;7.25;43.23;101359.41;4972293;28;45478;-54
2022/04/04 08:40:43;;;;;;;;;4.50;4.00;;;;;7.26;42.84;101346.13;4972856;28;46104;-58
2022/04/04 08:43:11;;;;;;;;;5.00;4.00;;;;;7.32;42.60;101345.09;4972752;27;45506;-58
2022/04/04 08:45:40;;;;;;;;;5.25;2.00;;;;;7.51;42.48;101359.47;4955682;28;45439;-60
2022/04/04 08:48:06;;;;;;;;;4.00;4.00;;;;;7.69;42.19;101353.63;4973303;28;45510;-55
2022/04/04 08:50:33;;;;;;;;;4.00;4.00;;;;;7.96;41.98;101349.19;4973104;27;46667;-56
2022/04/04 08:53:02;;;;;;;;;2.00;2.00;;;;;8.24;42.12;101335.00;4975507;28;45499;-61
2022/04/04 08:55:28;;;;;;;;;4.00;4.00;;;;;8.61;41.07;101345.22;5005477;28;45377;-54
2022/04/04 08:57:55;;;;;;;;;1.00;0.00;;;;;8.85;41.01;101335.47;5078021;27;45457;-55
2022/04/04 09:00:21;;;;;;;;;8.00;6.25;;;;;9.05;39.93;101340.06;5077844;28;45534;-54
2022/04/04 09:03:05;;;;;;;;;8.50;5.00;;;;;9.26;39.92;101327.78;5078941;27;45287;-58
2022/04/04 09:05:48;;;;;;;;;5.50;3.50;;;;;9.58;41.15;101327.34;5078940;27;45276;-56
2022/04/04 09:08:14;;;;;;;;;3.00;3.00;;;;;9.79;39.34;101304.38;5077414;28;45286;-60
2022/04/04 09:10:41;;;;;;;;;3.00;3.00;;;;;10.18;37.39;101319.56;5078415;27;45264;-59
2022/04/04 09:13:06;;;;;;;;;2.00;2.00;;;;;10.49;38.05;101316.47;5077683;28;45460;-57
2022/04/04 09:15:59;;;;;;;;;5.75;4.00;;;;;10.76;36.95;101311.72;5079094;27;45733;-54
2022/04/04 09:18:45;;;;;;;;;2.25;2.00;;;;;10.86;37.74;101299.72;5079065;27;45547;-57
2022/04/04 09:21:29;;;;;;;;;2.25;2.25;;;;;10.95;36.87;101309.94;5078683;27;45287;-62
2022/04/04 09:23:56;;;;;;;;;3.00;2.00;;;;;11.10;35.21;101306.56;5078309;27;45307;-56
2022/04/04 09:26:37;;;;;;;;;3.50;1.25;;;;;11.13;36.17;101301.09;5077069;27;45469;-56
2022/04/04 09:29:16;;;;;;;;;1.00;1.00;;;;;11.25;34.69;101293.47;5078794;27;45385;-58
2022/04/04 09:31:58;;;;;;;;;1.00;1.00;;;;;11.56;35.13;101290.16;5077928;27;46044;-58
2022/04/04 09:34:23;;;;;;;;;3.00;3.00;;;;;11.71;34.83;101294.75;5077025;27;45421;-60
2022/04/04 09:36:49;;;;;;;;;2.00;2.00;;;;;11.84;34.04;101279.91;5077073;28;45253;-57
2022/04/04 09:39:17;;;;;;;;;3.50;2.00;;;;;12.01;33.81;101282.59;5094573;27;45282;-58
2022/04/04 09:41:43;;;;;;;;;2.00;2.00;;;;;12.03;33.62;101274.50;5078023;27;45248;-54
2022/04/04 09:44:11;;;;;;;;;7.00;5.00;;;;;12.09;35.08;101271.50;5077888;27;45940;-55
2022/04/04 09:46:42;;;;;;;;;2.00;2.00;;;;;11.95;33.72;101271.38;5094185;27;45434;-57
2022/04/04 09:49:16;;;;;;;;;32.75;23.75;;;;;11.88;34.38;101269.97;5078704;27;45250;-57
2022/04/04 09:51:50;;;;;;;;;2.00;2.00;;;;;11.69;32.97;101264.66;5077795;27;46170;-59
2022/04/04 09:54:30;;;;;;;;;4.00;2.00;;;;;11.71;33.42;101268.09;5078697;27;45304;-58
2022/04/04 09:57:13;;;;;;;;;2.00;2.00;;;;;11.69;33.35;101260.19;4987038;27;45441;-56
2022/04/04 09:59:40;;;;;;;;;1.25;1.25;;;;;11.77;32.70;101243.81;4976552;28;45728;-62
2022/04/04 10:02:05;;;;;;;;;2.00;1.00;;;;;11.80;32.52;101235.69;4974412;28;45364;-57
2022/04/04 10:04:32;;;;;;;;;2.00;2.00;;;;;11.91;32.46;101253.81;4973810;28;45436;-56
2022/04/04 10:06:57;;;;;;;;;1.00;1.00;;;;;11.81;30.74;101256.06;4975608;28;45366;-57
2022/04/04 10:09:24;;;;;;;;;1.00;1.00;;;;;11.77;31.89;101252.69;4975228;28;45694;-60
2022/04/04 10:11:50;;;;;;;;;1.00;1.00;;;;;11.74;31.56;101242.19;4974873;28;46059;-55
2022/04/04 10:14:18;;;;;;;;;6.50;2.00;;;;;11.72;32.30;101246.72;4974638;28;45260;-59
2022/04/04 10:16:44;;;;;;;;;4.00;1.25;;;;;11.56;32.35;101243.09;4975025;28;45313;-53
2022/04/04 10:19:11;;;;;;;;;3.00;1.75;;;;;11.45;32.29;101245.41;4988393;28;45751;-56
2022/04/04 10:21:37;;;;;;;;;3.50;3.50;;;;;11.35;31.13;101236.16;4974561;28;45489;-59
2022/04/04 10:24:06;;;;;;;;;2.25;1.50;;;;;11.31;32.22;101229.25;4973288;28;45487;-53
2022/04/04 10:26:33;;;;;;;;;1.25;1.25;;;;;11.30;32.04;101231.06;4975140;28;45208;-57
2022/04/04 10:29:08;;;;;;;;;2.00;2.00;;;;;11.32;32.10;101226.50;4974968;28;45599;-53
2022/04/04 10:31:46;;;;;;;;;3.00;1.00;;;;;11.27;32.76;101219.69;4974673;28;45362;-54
2022/04/04 10:34:18;;;;;;;;;1.00;1.00;;;;;11.33;32.43;101224.72;4974570;28;45385;-60
2022/04/04 10:36:56;;;;;;;;;2.75;2.75;;;;;11.33;32.35;101214.06;4974995;27;45415;-57
2022/04/04 10:39:40;;;;;;;;;1.75;1.75;;;;;11.28;32.09;101214.28;4975016;28;45449;-55
2022/04/04 10:42:23;;;;;;;;;3.00;3.00;;;;;11.42;32.35;101208.28;4974742;28;45365;-58
2022/04/04 10:44:50;;;;;;;;;6.25;2.50;;;;;11.48;31.53;101198.19;4974444;28;45275;-57
2022/04/04 10:47:24;;;;;;;;;3.50;2.00;;;;;11.53;32.27;101187.31;4974898;28;45508;-61
2022/04/04 10:49:50;;;;;;;;;3.50;3.25;;;;;11.46;32.02;101175.25;4975148;28;45468;-58
2022/04/04 10:52:23;;;;;;;;;1.00;1.00;;;;;11.61;32.97;101197.59;4974071;28;46181;-52
2022/04/04 10:54:48;;;;;;;;;2.00;2.00;;;;;11.74;31.02;101194.22;4963426;28;47506;-56
2022/04/04 10:57:18;;;;;;;;;5.00;3.00;;;;;11.94;30.48;101173.69;5075552;27;45584;-60
2022/04/04 10:59:48;;;;;;;;;3.75;3.75;;;;;11.92;30.59;101168.44;5000895;27;45576;-58
2022/04/04 11:02:18;;;;;;;;;3.00;2.75;;;;;11.74;30.88;101148.91;4973478;28;46076;-56
2022/04/04 11:07:41;;;;;;;;;3.00;3.00;;;;;11.84;31.05;101167.09;4972687;28;45472;-60
2022/04/04 11:10:09;;;;;;;;;8.50;3.00;;;;;11.91;31.08;101161.38;4971246;28;45426;-59
2022/04/04 11:12:54;;;;;;;;;4.25;4.25;;;;;11.96;31.60;101155.81;5055663;28;47122;-59
2022/04/04 11:15:44;;;;;;;;;6.25;3.75;;;;;11.94;30.89;101147.88;5054483;28;45517;-62
2022/04/04 11:18:12;;;;;;;;;5.00;5.00;;;;;11.93;31.82;101137.31;5056801;28;45315;-66
2022/04/04 11:20:59;;;;;;;;;4.00;4.00;;;;;11.84;32.44;101117.31;5039269;28;45569;-56
2022/04/04 11:23:34;;;;;;;;;11.25;3.50;;;;;11.82;31.13;101143.19;4964304;28;45496;-62
2022/04/04 11:26:01;;;;;;;;;4.50;4.50;;;;;11.87;31.35;101127.00;5023426;28;45452;-58
2022/04/04 11:28:36;;;;;;;;;2.50;2.50;;;;;11.95;30.98;101122.09;4979487;28;45474;-62
2022/04/04 11:31:09;;;;;;;;;2.75;1.00;;;;;12.03;32.33;101117.22;4985420;28;45513;-61